createdAt,value
2022-08-26T00:00:31.863Z,21.70
2022-08-26T00:03:03.454Z,21.70
2022-08-26T00:05:33.874Z,21.70
2022-08-26T00:08:08.970Z,21.60
2022-08-26T00:10:42.689Z,21.50
2022-08-26T00:13:23.098Z,21.50
2022-08-26T00:15:54.906Z,21.50
2022-08-26T00:18:38.885Z,21.50
2022-08-26T00:21:16.535Z,21.50
2022-08-26T00:23:47.515Z,21.40
2022-08-26T00:26:16.868Z,21.50
2022-08-26T00:28:47.983Z,21.50
2022-08-26T00:31:19.901Z,21.50
2022-08-26T00:33:49.481Z,21.40
2022-08-26T00:36:24.144Z,21.40
2022-08-26T00:38:52.132Z,21.40
2022-08-26T00:41:27.088Z,21.40
2022-08-26T00:44:11.431Z,21.40
2022-08-26T00:46:51.474Z,21.40
2022-08-26T00:49:26.412Z,21.40
2022-08-26T00:52:04.399Z,21.30
2022-08-26T00:54:42.399Z,21.30
2022-08-26T00:57:18.357Z,21.30
2022-08-26T01:00:00.617Z,21.40
2022-08-26T01:02:35.909Z,21.40
2022-08-26T01:05:09.918Z,21.30
2022-08-26T01:07:41.765Z,21.30
2022-08-26T01:10:16.121Z,21.30
2022-08-26T01:13:01.980Z,21.30
2022-08-26T01:15:44.151Z,21.30
2022-08-26T01:18:21.851Z,21.30
2022-08-26T01:20:59.944Z,21.30
2022-08-26T01:23:39.920Z,21.30
2022-08-26T01:26:19.993Z,21.40
2022-08-26T01:28:56.465Z,21.50
2022-08-26T01:31:29.158Z,21.40
2022-08-26T01:34:16.057Z,21.40
2022-08-26T01:37:01.618Z,21.30
2022-08-26T01:39:51.896Z,21.20
2022-08-26T01:42:31.261Z,21.30
2022-08-26T01:45:15.413Z,21.30
2022-08-26T01:47:45.993Z,21.30
2022-08-26T01:50:30.354Z,21.20
2022-08-26T01:59:04.250Z,21.30
2022-08-26T02:02:02.946Z,21.30
2022-08-26T02:04:57.364Z,21.40
2022-08-26T02:07:41.771Z,21.20
2022-08-26T02:10:34.042Z,21.20
2022-08-26T02:13:37.754Z,21.20
2022-08-26T02:16:08.409Z,21.20
2022-08-26T02:19:04.866Z,21.20
2022-08-26T02:21:44.019Z,21.20
2022-08-26T02:24:22.615Z,21.20
2022-08-26T02:27:02.441Z,21.10
2022-08-26T02:30:01.723Z,21.10
2022-08-26T02:32:33.648Z,21.00
2022-08-26T02:35:45.404Z,21.10
2022-08-26T02:38:33.995Z,21.00
2022-08-26T02:44:15.607Z,21.00
2022-08-26T02:49:51.210Z,21.00
2022-08-26T02:52:21.917Z,21.00
2022-08-26T02:54:53.868Z,21.00
2022-08-26T02:57:29.231Z,21.10
2022-08-26T02:59:59.557Z,21.10
2022-08-26T03:02:34.452Z,21.10
2022-08-26T03:05:20.065Z,21.20
2022-08-26T03:07:48.107Z,21.20
2022-08-26T03:10:20.841Z,21.30
2022-08-26T03:12:49.268Z,21.30
2022-08-26T03:15:26.587Z,21.20
2022-08-26T03:18:03.949Z,21.20
2022-08-26T03:20:42.211Z,21.20
2022-08-26T03:23:13.566Z,21.20
2022-08-26T03:25:42.380Z,21.10
2022-08-26T03:28:14.229Z,21.10
2022-08-26T03:30:49.323Z,21.10
2022-08-26T03:33:20.305Z,21.10
2022-08-26T03:35:51.643Z,21.10
2022-08-26T03:38:44.718Z,21.10
2022-08-26T03:41:16.472Z,21.10
2022-08-26T03:44:01.989Z,21.10
2022-08-26T03:46:44.230Z,21.10
2022-08-26T03:49:22.405Z,21.10
2022-08-26T03:52:03.554Z,21.10
2022-08-26T03:54:39.433Z,21.10
2022-08-26T03:57:38.145Z,21.10
2022-08-26T04:00:18.410Z,21.10
2022-08-26T04:03:05.558Z,21.00
2022-08-26T04:06:06.871Z,21.00
2022-08-26T04:08:55.422Z,20.90
2022-08-26T04:11:50.390Z,20.90
2022-08-26T04:14:37.152Z,20.90
2022-08-26T04:17:24.964Z,20.90
2022-08-26T04:20:22.091Z,20.80
2022-08-26T04:23:24.967Z,20.90
2022-08-26T04:26:07.779Z,20.90
2022-08-26T04:28:53.762Z,20.80
2022-08-26T04:31:31.861Z,20.80
2022-08-26T04:34:03.093Z,20.80
2022-08-26T04:36:59.425Z,20.80
2022-08-26T04:39:56.045Z,20.80
2022-08-26T04:42:47.635Z,20.80
2022-08-26T04:48:38.987Z,20.80
2022-08-26T04:51:43.954Z,20.80
2022-08-26T04:55:06.565Z,20.90
2022-08-26T04:57:55.218Z,20.80
2022-08-26T05:00:43.845Z,20.80
2022-08-26T05:03:30.442Z,20.70
2022-08-26T05:06:35.558Z,20.70
2022-08-26T05:15:36.858Z,20.70
2022-08-26T05:21:34.513Z,20.70
2022-08-26T05:24:18.215Z,20.70
2022-08-26T05:30:00.174Z,20.80
2022-08-26T05:33:26.178Z,20.80
2022-08-26T05:36:13.647Z,20.80
2022-08-26T05:38:55.318Z,20.80
2022-08-26T05:41:55.522Z,20.80
2022-08-26T05:44:58.229Z,20.80
2022-08-26T05:47:42.940Z,20.80
2022-08-26T05:50:24.886Z,20.80
2022-08-26T05:53:15.149Z,20.80
2022-08-26T05:56:13.287Z,20.80
2022-08-26T05:59:04.831Z,20.80
2022-08-26T06:01:53.553Z,20.80
2022-08-26T06:08:37.008Z,20.80
2022-08-26T06:15:07.674Z,20.70
2022-08-26T06:18:00.226Z,20.80
2022-08-26T06:21:00.926Z,20.80
2022-08-26T06:24:00.425Z,20.90
2022-08-26T06:26:43.166Z,20.90
2022-08-26T06:29:26.024Z,20.80
2022-08-26T06:32:08.683Z,20.70
2022-08-26T06:35:06.380Z,20.70
2022-08-26T06:37:50.593Z,20.80
2022-08-26T06:40:49.756Z,20.80
2022-08-26T06:49:38.572Z,20.80
2022-08-26T06:52:41.511Z,20.80
2022-08-26T06:55:36.395Z,20.80
2022-08-26T06:58:31.556Z,20.80
2022-08-26T07:01:51.213Z,20.80
2022-08-26T07:04:51.162Z,20.80
2022-08-26T07:11:54.188Z,20.70
2022-08-26T07:15:13.520Z,20.70
2022-08-26T07:17:52.707Z,20.80
2022-08-26T07:20:35.119Z,20.80
2022-08-26T07:23:27.859Z,20.80
2022-08-26T07:26:01.282Z,20.80
2022-08-26T07:28:32.172Z,20.70
2022-08-26T07:31:09.950Z,20.70
2022-08-26T07:33:42.233Z,20.70
2022-08-26T07:36:23.523Z,20.70
2022-08-26T07:38:57.106Z,20.70
2022-08-26T07:41:35.288Z,20.70
2022-08-26T07:44:12.932Z,20.70
2022-08-26T07:49:47.256Z,20.60
2022-08-26T07:52:27.205Z,20.70
2022-08-26T07:55:12.350Z,20.70
2022-08-26T07:57:40.396Z,20.80
2022-08-26T08:00:19.983Z,20.90
2022-08-26T08:02:56.689Z,20.90
2022-08-26T08:05:33.597Z,20.90
2022-08-26T08:08:27.916Z,20.90
2022-08-26T08:11:12.147Z,20.90
2022-08-26T08:13:42.122Z,20.80
2022-08-26T08:16:32.400Z,20.80
2022-08-26T08:19:04.119Z,20.90
2022-08-26T08:21:39.688Z,20.90
2022-08-26T08:24:18.065Z,20.90
2022-08-26T08:26:49.048Z,20.80
2022-08-26T08:29:21.941Z,20.80
2022-08-26T08:31:58.378Z,20.80
2022-08-26T08:34:59.373Z,20.80
2022-08-26T08:37:33.176Z,20.90
2022-08-26T08:40:05.328Z,20.90
2022-08-26T08:42:54.749Z,20.90
2022-08-26T08:45:36.613Z,21.00
2022-08-26T08:48:14.263Z,21.00
2022-08-26T08:50:47.875Z,21.00
2022-08-26T08:53:23.022Z,21.00
2022-08-26T08:56:09.345Z,21.00
2022-08-26T08:58:52.119Z,20.90
2022-08-26T09:01:29.849Z,20.80
2022-08-26T09:04:17.371Z,20.80
2022-08-26T09:06:48.696Z,20.90
2022-08-26T09:09:25.336Z,20.90
2022-08-26T09:11:56.247Z,20.90
2022-08-26T09:14:24.816Z,20.90
2022-08-26T09:17:04.891Z,20.90
2022-08-26T09:19:41.730Z,20.90
2022-08-26T09:22:12.643Z,20.90
2022-08-26T09:24:48.408Z,21.00
2022-08-26T09:27:42.565Z,21.00
2022-08-26T09:30:16.151Z,21.00
2022-08-26T09:32:58.816Z,21.00
2022-08-26T09:35:33.902Z,21.00
2022-08-26T09:38:07.010Z,20.90
2022-08-26T09:40:39.692Z,21.00
2022-08-26T09:43:11.593Z,21.00
2022-08-26T09:45:43.499Z,21.10
2022-08-26T09:48:42.221Z,21.20
2022-08-26T09:54:10.481Z,21.30
2022-08-26T09:56:46.619Z,21.40
2022-08-26T09:59:32.027Z,21.40
2022-08-26T10:02:19.465Z,21.50
2022-08-26T10:04:54.443Z,21.50
2022-08-26T10:07:38.808Z,21.60
2022-08-26T10:10:13.988Z,21.70
2022-08-26T10:12:51.686Z,21.60
2022-08-26T10:15:21.063Z,21.50
2022-08-26T10:17:57.128Z,21.50
2022-08-26T10:20:29.898Z,21.40
2022-08-26T10:23:05.988Z,21.40
2022-08-26T10:25:38.297Z,21.30
2022-08-26T10:28:12.184Z,21.30
2022-08-26T10:30:47.988Z,21.30
2022-08-26T10:33:17.933Z,21.20
2022-08-26T10:35:59.470Z,21.20
2022-08-26T10:38:35.711Z,21.10
2022-08-26T10:41:18.800Z,21.00
2022-08-26T10:43:55.057Z,20.90
2022-08-26T10:46:28.782Z,20.90
2022-08-26T10:49:00.911Z,20.90
2022-08-26T10:51:45.661Z,20.90
2022-08-26T10:54:20.532Z,20.90
2022-08-26T10:56:58.384Z,20.90
2022-08-26T10:59:42.229Z,21.00
2022-08-26T11:02:15.370Z,20.90
2022-08-26T11:04:54.898Z,20.90
2022-08-26T11:07:44.646Z,20.80
2022-08-26T11:11:00.502Z,20.70
2022-08-26T11:14:04.777Z,20.60
2022-08-26T11:16:46.684Z,20.60
2022-08-26T11:20:02.255Z,20.60
2022-08-26T11:22:34.805Z,20.50
2022-08-26T11:25:11.422Z,20.40
2022-08-26T11:28:07.475Z,20.40
2022-08-26T11:30:56.867Z,20.40
2022-08-26T11:33:57.912Z,20.30
2022-08-26T11:36:57.305Z,20.30
2022-08-26T11:39:36.649Z,20.40
2022-08-26T11:42:31.060Z,20.50
2022-08-26T11:45:05.334Z,20.60
2022-08-26T11:47:35.097Z,20.60
2022-08-26T11:50:11.943Z,20.70
2022-08-26T11:52:40.293Z,20.80
2022-08-26T11:55:12.286Z,20.90
2022-08-26T11:57:46.039Z,20.90
2022-08-26T12:00:22.747Z,20.90
2022-08-26T12:02:55.561Z,21.10
2022-08-26T12:05:33.455Z,21.10
2022-08-26T12:08:08.220Z,21.10
2022-08-26T12:10:40.738Z,21.10
2022-08-26T12:13:19.238Z,21.10
2022-08-26T12:15:55.868Z,21.00
2022-08-26T12:18:30.004Z,21.10
2022-08-26T12:21:02.058Z,21.00
2022-08-26T12:23:43.243Z,21.00
2022-08-26T12:26:20.771Z,21.00
2022-08-26T12:28:53.531Z,20.90
2022-08-26T12:31:26.868Z,20.90
2022-08-26T12:33:59.522Z,20.90
2022-08-26T12:36:32.304Z,20.90
2022-08-26T12:39:10.810Z,20.90
2022-08-26T12:41:42.411Z,20.90
2022-08-26T12:44:31.008Z,20.90
2022-08-26T12:47:08.102Z,20.90
2022-08-26T12:49:40.978Z,20.90
2022-08-26T12:52:32.872Z,20.90
2022-08-26T12:55:03.741Z,20.90
2022-08-26T12:57:36.889Z,20.90
2022-08-26T13:00:36.797Z,21.00
2022-08-26T13:03:06.435Z,20.90
2022-08-26T13:05:38.261Z,20.90
2022-08-26T13:08:17.920Z,20.80
2022-08-26T13:10:49.638Z,20.80
2022-08-26T13:13:17.584Z,20.80
2022-08-26T13:15:45.692Z,20.80
2022-08-26T13:18:15.912Z,20.80
2022-08-26T13:20:48.966Z,20.80
2022-08-26T13:23:18.687Z,20.80
2022-08-26T13:25:51.640Z,20.70
2022-08-26T13:28:23.995Z,20.80
2022-08-26T13:30:54.968Z,20.70
2022-08-26T13:33:24.270Z,20.80
2022-08-26T13:35:55.429Z,20.90
2022-08-26T13:38:33.393Z,21.00
2022-08-26T13:41:04.967Z,21.00
2022-08-26T13:43:35.870Z,21.00
2022-08-26T13:46:06.013Z,21.00
2022-08-26T13:48:35.782Z,21.00
2022-08-26T13:51:09.164Z,21.00
2022-08-26T13:53:39.179Z,20.90
2022-08-26T13:56:12.096Z,20.90
2022-08-26T13:58:41.363Z,20.80
2022-08-26T14:01:10.999Z,20.80
2022-08-26T14:03:40.284Z,20.70
2022-08-26T14:06:11.367Z,20.70
2022-08-26T14:08:41.104Z,20.60
2022-08-26T14:11:10.586Z,20.50
2022-08-26T14:13:39.396Z,20.50
2022-08-26T14:16:13.318Z,20.50
2022-08-26T14:18:49.985Z,20.50
2022-08-26T14:21:23.745Z,20.50
2022-08-26T14:23:52.993Z,20.60
2022-08-26T14:26:28.560Z,20.60
2022-08-26T14:28:59.181Z,20.60
2022-08-26T14:31:29.632Z,20.60
2022-08-26T14:34:00.891Z,20.60
2022-08-26T14:36:32.700Z,20.60
2022-08-26T14:39:04.412Z,20.60
2022-08-26T14:41:35.206Z,20.60
2022-08-26T14:44:07.410Z,20.70
2022-08-26T14:46:44.242Z,20.70
2022-08-26T14:49:14.074Z,20.80
2022-08-26T14:51:44.638Z,20.80
2022-08-26T14:54:13.971Z,20.80
2022-08-26T14:56:46.983Z,20.80
2022-08-26T14:59:18.272Z,20.80
2022-08-26T15:01:47.213Z,20.80
2022-08-26T15:04:15.973Z,20.90
2022-08-26T15:06:48.276Z,20.80
2022-08-26T15:09:18.006Z,20.80
2022-08-26T15:11:47.765Z,20.70
2022-08-26T15:14:19.345Z,20.60
2022-08-26T15:16:49.039Z,20.60
2022-08-26T15:19:18.463Z,20.60
2022-08-26T15:21:49.439Z,20.50
2022-08-26T15:24:21.050Z,20.50
2022-08-26T15:26:49.489Z,20.50
2022-08-26T15:29:18.763Z,20.50
2022-08-26T15:31:49.869Z,20.50
2022-08-26T15:34:18.989Z,20.60
2022-08-26T15:36:51.068Z,20.60
2022-08-26T15:39:21.486Z,20.60
2022-08-26T15:41:50.629Z,20.50
2022-08-26T15:44:20.128Z,20.60
2022-08-26T15:46:54.325Z,20.40
2022-08-26T15:49:27.734Z,20.40
2022-08-26T15:51:58.725Z,20.40
2022-08-26T15:54:27.849Z,20.40
2022-08-26T15:56:59.373Z,20.30
2022-08-26T15:59:29.488Z,20.40
2022-08-26T16:01:59.701Z,20.50
2022-08-26T16:04:32.059Z,20.50
2022-08-26T16:07:02.490Z,20.50
2022-08-26T16:09:31.729Z,20.40
2022-08-26T16:12:01.211Z,20.50
2022-08-26T16:14:30.750Z,20.40
2022-08-26T16:17:00.116Z,20.40
2022-08-26T16:19:29.017Z,20.40
2022-08-26T16:21:57.079Z,20.40
2022-08-26T16:24:30.496Z,20.40
2022-08-26T16:27:00.048Z,20.40
2022-08-26T16:29:30.222Z,20.40
2022-08-26T16:31:59.208Z,20.50
2022-08-26T16:34:28.427Z,20.50
2022-08-26T16:36:56.913Z,20.50
2022-08-26T16:39:26.711Z,20.50
2022-08-26T16:41:55.034Z,20.50
2022-08-26T16:44:24.146Z,20.50
2022-08-26T16:46:58.574Z,20.40
2022-08-26T16:49:27.267Z,20.40
2022-08-26T16:51:56.862Z,20.40
2022-08-26T16:54:26.544Z,20.30
2022-08-26T16:56:54.542Z,20.20
2022-08-26T16:59:28.807Z,20.20
2022-08-26T17:01:58.980Z,20.10
2022-08-26T17:04:30.691Z,20.00
2022-08-26T17:06:58.898Z,20.00
2022-08-26T17:09:28.876Z,20.00
2022-08-26T17:11:56.820Z,20.00
2022-08-26T17:14:25.646Z,20.00
2022-08-26T17:16:53.887Z,19.90
2022-08-26T17:19:23.388Z,19.90
2022-08-26T17:21:52.568Z,19.90
2022-08-26T17:24:21.964Z,19.90
2022-08-26T17:26:55.498Z,19.90
2022-08-26T17:29:24.170Z,19.90
2022-08-26T17:31:53.058Z,19.90
2022-08-26T17:34:22.762Z,19.90
2022-08-26T17:36:52.589Z,19.90
2022-08-26T17:39:22.104Z,19.90
2022-08-26T17:41:52.519Z,19.90
2022-08-26T17:44:20.814Z,19.90
2022-08-26T17:46:49.303Z,19.80
2022-08-26T17:49:18.209Z,19.80
2022-08-26T17:51:46.774Z,19.80
2022-08-26T17:54:16.610Z,19.80
2022-08-26T17:56:48.233Z,19.80
2022-08-26T17:59:19.166Z,19.80
2022-08-26T18:01:48.614Z,19.80
2022-08-26T18:04:17.897Z,19.70
2022-08-26T18:06:47.258Z,19.60
2022-08-26T18:09:16.570Z,19.60
2022-08-26T18:11:46.399Z,19.60
2022-08-26T18:14:16.121Z,19.60
2022-08-26T18:16:47.360Z,19.50
2022-08-26T18:19:17.460Z,19.50
2022-08-26T18:21:47.053Z,19.40
2022-08-26T18:24:15.554Z,19.40
2022-08-26T18:26:49.149Z,19.30
2022-08-26T18:29:21.517Z,19.30
2022-08-26T18:31:58.874Z,19.20
2022-08-26T18:34:33.456Z,19.20
2022-08-26T18:39:48.962Z,19.10
2022-08-26T18:42:23.967Z,19.00
2022-08-26T18:44:54.257Z,19.00
2022-08-26T18:47:31.572Z,19.00
2022-08-26T18:50:04.434Z,19.00
2022-08-26T18:52:37.430Z,19.00
2022-08-26T18:55:13.924Z,19.00
2022-08-26T18:57:47.725Z,19.00
2022-08-26T19:00:18.905Z,18.90
2022-08-26T19:02:51.927Z,18.90
2022-08-26T19:05:21.040Z,18.90
2022-08-26T19:07:48.892Z,18.90
2022-08-26T19:10:16.972Z,18.90
2022-08-26T19:12:44.831Z,18.90
2022-08-26T19:15:13.522Z,18.90
2022-08-26T19:17:41.437Z,18.90
2022-08-26T19:20:12.136Z,18.90
2022-08-26T19:22:46.763Z,19.00
2022-08-26T19:25:18.768Z,19.00
2022-08-26T19:27:47.201Z,19.00
2022-08-26T19:30:19.352Z,19.00
2022-08-26T19:32:47.458Z,19.00
2022-08-26T19:35:17.175Z,19.00
2022-08-26T19:37:51.179Z,19.00
2022-08-26T19:40:26.977Z,19.00
2022-08-26T19:42:55.114Z,19.00
2022-08-26T19:45:27.320Z,19.00
2022-08-26T19:47:55.621Z,18.90
2022-08-26T19:50:27.884Z,18.90
2022-08-26T19:52:56.063Z,18.90
2022-08-26T19:55:24.664Z,18.90
2022-08-26T19:57:53.071Z,18.80
2022-08-26T20:00:24.232Z,18.80
2022-08-26T20:02:52.828Z,18.70
2022-08-26T20:05:23.701Z,18.60
2022-08-26T20:07:53.327Z,18.60
2022-08-26T20:10:23.945Z,18.50
2022-08-26T20:12:52.813Z,18.60
2022-08-26T20:15:22.569Z,18.60
2022-08-26T20:17:51.300Z,18.60
2022-08-26T20:20:36.588Z,18.60
2022-08-26T20:23:05.770Z,18.70
2022-08-26T20:25:34.696Z,18.70
2022-08-26T20:28:02.705Z,18.70
2022-08-26T20:30:30.762Z,18.70
2022-08-26T20:32:58.586Z,18.70
2022-08-26T20:35:26.397Z,18.70
2022-08-26T20:37:54.271Z,18.70
2022-08-26T20:40:23.691Z,18.70
2022-08-26T20:42:51.561Z,18.70
2022-08-26T20:45:19.507Z,18.70
2022-08-26T20:47:47.297Z,18.70
2022-08-26T20:50:15.138Z,18.70
2022-08-26T20:52:42.971Z,18.70
2022-08-26T20:55:11.308Z,18.70
2022-08-26T20:57:43.262Z,18.70
2022-08-26T21:00:14.132Z,18.70
2022-08-26T21:02:42.964Z,18.70
2022-08-26T21:05:11.101Z,18.80
2022-08-26T21:07:39.344Z,18.70
2022-08-26T21:10:07.693Z,18.70
2022-08-26T21:12:36.452Z,18.80
2022-08-26T21:15:07.361Z,18.80
2022-08-26T21:17:35.588Z,18.80
2022-08-26T21:20:04.127Z,18.80
2022-08-26T21:22:31.969Z,18.80
2022-08-26T21:24:59.779Z,18.80
2022-08-26T21:27:27.894Z,18.80
2022-08-26T21:29:55.889Z,18.80
2022-08-26T21:32:25.076Z,18.80
2022-08-26T21:34:55.873Z,18.80
2022-08-26T21:37:23.827Z,18.90
2022-08-26T21:39:54.161Z,18.80
2022-08-26T21:42:22.069Z,18.80
2022-08-26T21:44:52.648Z,18.80
2022-08-26T21:47:20.916Z,18.90
2022-08-26T21:49:50.317Z,18.80
2022-08-26T21:52:18.410Z,18.90
2022-08-26T21:54:49.334Z,18.80
2022-08-26T21:57:18.253Z,18.90
2022-08-26T21:59:46.172Z,18.90
2022-08-26T22:02:14.005Z,18.90
2022-08-26T22:04:45.620Z,18.80
2022-08-26T22:07:19.051Z,18.80
2022-08-26T22:09:47.296Z,18.70
2022-08-26T22:12:17.994Z,18.80
2022-08-26T22:14:46.961Z,18.70
2022-08-26T22:17:15.389Z,18.70
2022-08-26T22:19:46.248Z,18.80
2022-08-26T22:22:15.357Z,18.80
2022-08-26T22:24:44.580Z,18.80
2022-08-26T22:27:12.883Z,18.80
2022-08-26T22:29:41.051Z,18.80
2022-08-26T22:32:08.991Z,18.80
2022-08-26T22:34:36.860Z,18.80
2022-08-26T22:37:04.888Z,18.90
2022-08-26T22:39:32.690Z,18.90
2022-08-26T22:42:03.563Z,18.90
2022-08-26T22:44:32.399Z,19.00
2022-08-26T22:47:01.070Z,19.00
2022-08-26T22:49:29.015Z,19.00
2022-08-26T22:51:56.877Z,18.90
2022-08-26T22:54:24.733Z,19.00
2022-08-26T22:56:52.743Z,18.90
2022-08-26T22:59:21.977Z,18.90
2022-08-26T23:01:49.781Z,18.90
2022-08-26T23:04:17.617Z,18.90
2022-08-26T23:06:47.429Z,18.80
2022-08-26T23:09:17.816Z,18.90
2022-08-26T23:11:46.873Z,18.90
2022-08-26T23:14:14.720Z,18.90
2022-08-26T23:16:43.937Z,18.90
2022-08-26T23:19:14.829Z,18.90
2022-08-26T23:21:43.081Z,18.90
2022-08-26T23:24:11.666Z,18.80
2022-08-26T23:26:40.720Z,18.90
2022-08-26T23:29:10.636Z,18.80
2022-08-26T23:31:39.694Z,18.70
2022-08-26T23:34:26.933Z,18.70
2022-08-26T23:36:57.831Z,18.70
2022-08-26T23:39:26.366Z,18.70
2022-08-26T23:41:54.316Z,18.70
2022-08-26T23:44:22.334Z,18.70
2022-08-26T23:46:50.285Z,18.70
2022-08-26T23:49:19.414Z,18.70
2022-08-26T23:52:04.812Z,18.60
2022-08-26T23:54:33.626Z,18.60
2022-08-26T23:57:01.478Z,18.60
2022-08-26T23:59:29.381Z,18.70
